Time;durP1;ratioP1;P1;durP2;ratioP2;P2;SDS_P1;SDS_P2;PMS_P1;PMS_P2;Temp;Humidity;BMP_temperature;BMP_pressure;BME280_temperature;BME280_humidity;BME280_pressure;Samples;Min_cycle;Max_cycle;Signal;HPM_P1;HPM_P2
2023/05/11 00:01:20;;;;;;;;;;;14.50;86.60;;;;;;4983845;28;19926;-67
2023/05/11 00:03:47;;;;;;;;;;;14.50;86.60;;;;;;4983769;28;19933;-66
2023/05/11 00:06:13;;;;;;;;;;;14.40;86.70;;;;;;4986733;28;19941;-67
2023/05/11 00:08:41;;;;;;;;;;;14.40;86.70;;;;;;4983871;28;19926;-67
2023/05/11 00:11:08;;;;;;;;;;;14.40;86.70;;;;;;4983788;28;19929;-67
2023/05/11 00:13:35;;;;;;;;;;;14.40;86.50;;;;;;4986202;28;19976;-67
2023/05/11 00:16:02;;;;;;;;;;;14.40;86.40;;;;;;4984794;28;20348;-67
2023/05/11 00:18:29;;;;;;;;;;;14.40;86.30;;;;;;4982977;28;19941;-68
2023/05/11 00:20:56;;;;;;;;;;;14.40;86.20;;;;;;4984635;28;19930;-67
2023/05/11 00:23:23;;;;;;;;;;;14.30;86.30;;;;;;4986375;28;19933;-67
2023/05/11 00:25:51;;;;;;;;;;;14.30;86.20;;;;;;4985424;28;19930;-63
2023/05/11 00:28:18;;;;;;;;;;;14.30;86.30;;;;;;4983662;28;19933;-64
2023/05/11 00:30:45;;;;;;;;;;;14.20;86.20;;;;;;4984856;28;20456;-74
2023/05/11 00:33:11;;;;;;;;;;;14.10;86.20;;;;;;4968294;28;20388;-75
2023/05/11 00:35:38;;;;;;;;;;;14.10;86.20;;;;;;4964317;28;20300;-64
2023/05/11 00:38:05;;;;;;;;;;;14.10;86.10;;;;;;4965464;28;19930;-64
2023/05/11 00:40:32;;;;;;;;;;;14.10;86.20;;;;;;4984664;28;19932;-67
2023/05/11 00:43:00;;;;;;;;;;;14.10;86.20;;;;;;4964782;28;19930;-68
2023/05/11 00:45:27;;;;;;;;;;;14.10;86.10;;;;;;4982168;28;19926;-67
2023/05/11 00:47:53;;;;;;;;;;;14.10;86.00;;;;;;4983485;28;19937;-66
2023/05/11 00:50:20;;;;;;;;;;;14.10;86.00;;;;;;4984617;28;20325;-74
2023/05/11 00:52:47;;;;;;;;;;;14.00;86.00;;;;;;4984444;28;19926;-73
2023/05/11 00:55:14;;;;;;;;;;;14.00;86.00;;;;;;4982943;28;19933;-72
2023/05/11 00:57:41;;;;;;;;;;;14.00;85.90;;;;;;4984824;28;19937;-74
2023/05/11 01:00:10;;;;;;;;;;;13.90;85.90;;;;;;4978153;28;19930;-75
2023/05/11 01:02:37;;;;;;;;;;;13.90;86.00;;;;;;4980670;28;19929;-74
2023/05/11 01:05:04;;;;;;;;;;;13.90;85.90;;;;;;4984415;28;19929;-74
2023/05/11 01:07:32;;;;;;;;;;;13.90;85.80;;;;;;4983354;28;20341;-64
2023/05/11 01:10:02;;;;;;;;;;;13.90;85.70;;;;;;4983453;28;19984;-64
2023/05/11 01:12:34;;;;;;;;;;;13.90;85.70;;;;;;4966685;28;19926;-64
2023/05/11 01:15:04;;;;;;;;;;;13.90;85.60;;;;;;4983053;28;20037;-62
2023/05/11 01:17:37;;;;;;;;;;;13.90;85.50;;;;;;4980703;28;19936;-67
2023/05/11 01:20:06;;;;;;;;;;;13.90;85.50;;;;;;4982367;28;19937;-67
2023/05/11 01:22:38;;;;;;;;;;;13.90;85.50;;;;;;4972194;28;19934;-67
2023/05/11 01:25:10;;;;;;;;;;;13.90;85.40;;;;;;4982612;28;20056;-65
2023/05/11 01:27:46;;;;;;;;;;;13.90;85.40;;;;;;4983677;28;20012;-67
2023/05/11 01:30:26;;;;;;;;;;;13.80;85.60;;;;;;4965431;28;20405;-66
2023/05/11 01:32:54;;;;;;;;;;;13.80;85.60;;;;;;4981328;28;19926;-66
2023/05/11 01:35:22;;;;;;;;;;;13.80;85.70;;;;;;4966174;28;19933;-74
2023/05/11 01:37:50;;;;;;;;;;;13.80;85.90;;;;;;4980808;28;20320;-74
2023/05/11 01:40:17;;;;;;;;;;;13.80;86.10;;;;;;4982483;28;19929;-74
2023/05/11 01:42:46;;;;;;;;;;;13.80;86.00;;;;;;4981514;28;19981;-74
2023/05/11 01:45:13;;;;;;;;;;;13.80;86.00;;;;;;4982824;28;20020;-74
2023/05/11 01:47:43;;;;;;;;;;;13.70;85.90;;;;;;4964238;28;19930;-73
2023/05/11 01:50:11;;;;;;;;;;;13.70;85.70;;;;;;4980170;28;19934;-73
2023/05/11 01:52:38;;;;;;;;;;;13.70;85.70;;;;;;4979587;28;19930;-73
2023/05/11 01:55:06;;;;;;;;;;;13.70;85.60;;;;;;4983748;28;19926;-74
2023/05/11 01:57:33;;;;;;;;;;;13.70;85.70;;;;;;4980622;28;20428;-67
2023/05/11 02:00:01;;;;;;;;;;;13.70;85.70;;;;;;4980920;28;19937;-66
2023/05/11 02:02:28;;;;;;;;;;;13.70;85.60;;;;;;4963981;28;19985;-62
2023/05/11 02:04:58;;;;;;;;;;;13.80;85.50;;;;;;4984349;28;19926;-63
2023/05/11 02:07:26;;;;;;;;;;;13.70;85.60;;;;;;4965909;28;19930;-63
2023/05/11 02:09:53;;;;;;;;;;;13.70;85.50;;;;;;4978755;28;19961;-63
2023/05/11 02:12:20;;;;;;;;;;;13.60;85.50;;;;;;4981321;28;19930;-77
2023/05/11 02:14:48;;;;;;;;;;;13.60;85.50;;;;;;4980741;28;19930;-76
2023/05/11 02:17:15;;;;;;;;;;;13.60;85.50;;;;;;4984871;28;19933;-74
2023/05/11 02:19:44;;;;;;;;;;;13.50;85.40;;;;;;4980521;28;19930;-74
2023/05/11 02:22:13;;;;;;;;;;;13.60;85.00;;;;;;4984013;28;20025;-73
2023/05/11 02:24:40;;;;;;;;;;;13.60;84.90;;;;;;4979468;28;19985;-73
2023/05/11 02:27:07;;;;;;;;;;;13.50;84.70;;;;;;4981890;28;20385;-76
2023/05/11 02:29:34;;;;;;;;;;;13.40;84.60;;;;;;4961362;28;19926;-74
2023/05/11 02:32:06;;;;;;;;;;;13.40;84.70;;;;;;4965720;28;19933;-75
2023/05/11 02:34:35;;;;;;;;;;;13.40;84.70;;;;;;4969942;28;19961;-75
2023/05/11 02:37:05;;;;;;;;;;;13.40;84.70;;;;;;4986505;28;19932;-65
2023/05/11 02:39:36;;;;;;;;;;;13.30;84.70;;;;;;4967322;28;20384;-65
2023/05/11 02:42:06;;;;;;;;;;;13.20;84.80;;;;;;4986078;28;19926;-65
2023/05/11 02:44:34;;;;;;;;;;;13.20;85.00;;;;;;4968852;28;20025;-65
2023/05/11 02:47:03;;;;;;;;;;;13.20;84.90;;;;;;4987135;28;19929;-66
2023/05/11 02:49:31;;;;;;;;;;;13.10;85.00;;;;;;4984589;28;20471;-66
2023/05/11 02:51:59;;;;;;;;;;;13.10;85.00;;;;;;4976221;28;19929;-77
2023/05/11 02:54:27;;;;;;;;;;;13.10;84.90;;;;;;4968688;28;20073;-75
2023/05/11 02:56:56;;;;;;;;;;;13.10;84.90;;;;;;4968365;28;19930;-67
2023/05/11 02:59:24;;;;;;;;;;;13.10;84.80;;;;;;4982300;28;19926;-67
2023/05/11 03:01:52;;;;;;;;;;;13.20;84.60;;;;;;4986907;28;19934;-66
2023/05/11 03:04:18;;;;;;;;;;;13.10;84.70;;;;;;4969278;28;19934;-66
2023/05/11 03:06:45;;;;;;;;;;;13.10;84.70;;;;;;4985309;28;20305;-65
2023/05/11 03:09:12;;;;;;;;;;;13.20;84.80;;;;;;4985701;28;19988;-63
2023/05/11 03:11:46;;;;;;;;;;;13.10;84.80;;;;;;4984084;28;19930;-62
2023/05/11 03:14:14;;;;;;;;;;;13.10;84.70;;;;;;4963654;28;20018;-62
2023/05/11 03:16:42;;;;;;;;;;;13.00;84.80;;;;;;4969780;28;19932;-75
2023/05/11 03:19:10;;;;;;;;;;;13.00;84.90;;;;;;4966508;28;19965;-76
2023/05/11 03:21:37;;;;;;;;;;;13.00;85.20;;;;;;4982730;28;20459;-64
2023/05/11 03:24:05;;;;;;;;;;;12.90;85.10;;;;;;4984095;28;19926;-65
2023/05/11 03:26:33;;;;;;;;;;;12.90;85.20;;;;;;4981630;28;19936;-66
2023/05/11 03:29:00;;;;;;;;;;;13.00;85.30;;;;;;4968277;28;20013;-67
2023/05/11 03:31:29;;;;;;;;;;;12.90;85.30;;;;;;4985081;28;19925;-68
2023/05/11 03:33:57;;;;;;;;;;;12.90;85.50;;;;;;4960352;28;19926;-64
2023/05/11 03:36:25;;;;;;;;;;;12.90;85.60;;;;;;4963513;28;20008;-68
2023/05/11 03:38:55;;;;;;;;;;;12.90;85.80;;;;;;4968530;28;20013;-68
2023/05/11 03:41:24;;;;;;;;;;;12.80;86.00;;;;;;4977717;28;19936;-65
2023/05/11 03:43:54;;;;;;;;;;;12.70;86.10;;;;;;4965874;28;19933;-66
2023/05/11 03:46:22;;;;;;;;;;;12.70;86.10;;;;;;4980888;28;20011;-66
2023/05/11 03:48:51;;;;;;;;;;;12.60;86.30;;;;;;4985881;28;19937;-66
2023/05/11 03:51:21;;;;;;;;;;;12.60;86.30;;;;;;4966714;28;20485;-62
2023/05/11 03:53:48;;;;;;;;;;;12.60;86.40;;;;;;4984999;28;19930;-61
2023/05/11 03:56:16;;;;;;;;;;;12.60;86.50;;;;;;4968899;28;20226;-62
2023/05/11 03:58:42;;;;;;;;;;;12.60;86.40;;;;;;4968462;28;19949;-62
2023/05/11 04:01:09;;;;;;;;;;;12.50;86.40;;;;;;4970082;28;19959;-68
2023/05/11 04:03:46;;;;;;;;;;;12.50;86.20;;;;;;4981606;28;19930;-67
2023/05/11 04:06:15;;;;;;;;;;;12.50;86.10;;;;;;4963359;28;19930;-72
2023/05/11 04:08:41;;;;;;;;;;;12.60;86.00;;;;;;4978850;28;19934;-73
2023/05/11 04:11:08;;;;;;;;;;;12.60;86.00;;;;;;4980437;28;19930;-65
2023/05/11 04:13:35;;;;;;;;;;;12.60;85.80;;;;;;4983471;28;19930;-65
2023/05/11 04:16:02;;;;;;;;;;;12.60;85.80;;;;;;4982214;28;20518;-65
2023/05/11 04:18:30;;;;;;;;;;;12.70;85.70;;;;;;4967056;28;19968;-65
2023/05/11 04:20:56;;;;;;;;;;;12.70;85.70;;;;;;4963958;28;20396;-66
2023/05/11 04:23:24;;;;;;;;;;;12.70;85.80;;;;;;4981055;28;19926;-65
2023/05/11 04:25:53;;;;;;;;;;;12.60;85.90;;;;;;4982883;28;19930;-67
2023/05/11 04:28:20;;;;;;;;;;;12.60;86.10;;;;;;4982371;28;19934;-66
2023/05/11 04:30:52;;;;;;;;;;;12.60;86.20;;;;;;4983304;28;19926;-66
2023/05/11 04:33:19;;;;;;;;;;;12.70;86.20;;;;;;4965266;28;19926;-67
2023/05/11 04:35:46;;;;;;;;;;;12.60;86.20;;;;;;4982284;28;20009;-61
2023/05/11 04:38:13;;;;;;;;;;;12.60;86.30;;;;;;4981169;28;19956;-61
2023/05/11 04:40:42;;;;;;;;;;;12.70;86.10;;;;;;4982433;28;20016;-72
2023/05/11 04:43:08;;;;;;;;;;;12.70;85.90;;;;;;4981413;28;20025;-73
2023/05/11 04:45:35;;;;;;;;;;;12.60;85.80;;;;;;4959960;28;20425;-63
2023/05/11 04:48:02;;;;;;;;;;;12.60;86.00;;;;;;4968739;28;20313;-64
2023/05/11 04:50:29;;;;;;;;;;;12.60;86.10;;;;;;4980505;28;20336;-67
2023/05/11 04:52:56;;;;;;;;;;;12.60;86.20;;;;;;4965939;28;19934;-67
2023/05/11 04:55:23;;;;;;;;;;;12.60;86.20;;;;;;4966569;28;19934;-62
2023/05/11 04:57:52;;;;;;;;;;;12.60;86.10;;;;;;4962607;28;19937;-62
2023/05/11 05:00:19;;;;;;;;;;;12.60;86.20;;;;;;4963736;28;20305;-63
2023/05/11 05:02:49;;;;;;;;;;;12.60;86.10;;;;;;4978858;28;20977;-73
2023/05/11 05:05:16;;;;;;;;;;;12.60;86.10;;;;;;4984015;28;19941;-74
2023/05/11 05:07:42;;;;;;;;;;;12.60;86.10;;;;;;4965308;28;19940;-73
2023/05/11 05:10:11;;;;;;;;;;;12.60;86.00;;;;;;4964351;28;20373;-73
2023/05/11 05:12:38;;;;;;;;;;;12.70;86.10;;;;;;4965127;28;19976;-73
2023/05/11 05:15:07;;;;;;;;;;;12.70;86.00;;;;;;4963152;28;19965;-73
2023/05/11 05:17:35;;;;;;;;;;;12.70;86.00;;;;;;4971287;28;20005;-62
2023/05/11 05:20:03;;;;;;;;;;;12.70;85.70;;;;;;4982939;28;19934;-63
2023/05/11 05:22:30;;;;;;;;;;;12.70;85.90;;;;;;4982400;28;20024;-63
2023/05/11 05:24:57;;;;;;;;;;;12.70;85.90;;;;;;4980963;28;20014;-63
2023/05/11 05:27:23;;;;;;;;;;;12.70;86.00;;;;;;4982063;28;19926;-66
2023/05/11 05:29:50;;;;;;;;;;;12.70;86.00;;;;;;4981506;28;19937;-65
2023/05/11 05:32:18;;;;;;;;;;;12.60;86.10;;;;;;4971114;28;19936;-65
2023/05/11 05:34:45;;;;;;;;;;;12.70;85.80;;;;;;4980546;28;19930;-66
2023/05/11 05:37:12;;;;;;;;;;;12.70;85.90;;;;;;4963998;28;19934;-73
2023/05/11 05:39:39;;;;;;;;;;;12.80;85.90;;;;;;4981502;28;20285;-73
2023/05/11 05:42:06;;;;;;;;;;;12.90;85.70;;;;;;4963791;28;19930;-73
2023/05/11 05:44:33;;;;;;;;;;;12.90;85.90;;;;;;4983897;28;20466;-74
2023/05/11 05:47:00;;;;;;;;;;;12.90;85.80;;;;;;4963881;28;19972;-64
2023/05/11 05:49:32;;;;;;;;;;;13.00;85.60;;;;;;4965635;28;19997;-62
2023/05/11 05:51:58;;;;;;;;;;;13.00;85.40;;;;;;4962291;28;19969;-67
2023/05/11 05:54:25;;;;;;;;;;;13.00;85.50;;;;;;4979766;28;19926;-67
2023/05/11 05:56:53;;;;;;;;;;;13.00;85.60;;;;;;4963885;28;19956;-67
2023/05/11 05:59:23;;;;;;;;;;;13.10;85.50;;;;;;4963049;28;19933;-67
2023/05/11 06:01:50;;;;;;;;;;;13.10;85.50;;;;;;4980264;28;20013;-63
2023/05/11 06:04:18;;;;;;;;;;;13.20;85.30;;;;;;4966191;28;19925;-62
2023/05/11 06:06:46;;;;;;;;;;;13.20;85.20;;;;;;4965505;28;19933;-67
2023/05/11 06:09:13;;;;;;;;;;;13.20;85.10;;;;;;4978783;28;19938;-67
2023/05/11 06:11:39;;;;;;;;;;;13.30;85.00;;;;;;4962885;28;19930;-63
2023/05/11 06:14:06;;;;;;;;;;;13.30;85.00;;;;;;4962830;28;20417;-62
2023/05/11 06:16:34;;;;;;;;;;;13.30;85.00;;;;;;4959594;28;19929;-61
2023/05/11 06:19:00;;;;;;;;;;;13.30;84.70;;;;;;4981580;28;19933;-61
2023/05/11 06:21:27;;;;;;;;;;;13.30;84.60;;;;;;4970799;28;19933;-61
2023/05/11 06:23:55;;;;;;;;;;;13.30;84.50;;;;;;4981988;28;19926;-63
2023/05/11 06:26:24;;;;;;;;;;;13.30;84.60;;;;;;4965535;28;20021;-61
2023/05/11 06:28:52;;;;;;;;;;;13.30;84.50;;;;;;4962333;28;19930;-61
2023/05/11 06:31:19;;;;;;;;;;;13.30;84.20;;;;;;4979147;28;19926;-64
2023/05/11 06:33:47;;;;;;;;;;;13.40;83.90;;;;;;4965802;28;19930;-65
2023/05/11 06:36:21;;;;;;;;;;;13.40;83.70;;;;;;4964210;28;19926;-67
2023/05/11 06:38:48;;;;;;;;;;;13.50;83.70;;;;;;4979018;28;19976;-68
2023/05/11 06:41:16;;;;;;;;;;;13.50;83.60;;;;;;4961501;28;23007;-67
2023/05/11 06:43:43;;;;;;;;;;;13.50;83.60;;;;;;4982770;28;19934;-67
2023/05/11 06:46:21;;;;;;;;;;;13.50;83.20;;;;;;4971846;28;20017;-65
2023/05/11 06:48:49;;;;;;;;;;;13.50;83.00;;;;;;4963154;28;20692;-64
2023/05/11 06:51:15;;;;;;;;;;;13.60;82.80;;;;;;4981624;28;19926;-64
2023/05/11 06:53:44;;;;;;;;;;;13.60;82.70;;;;;;4980948;28;20099;-63
2023/05/11 06:56:10;;;;;;;;;;;13.60;82.40;;;;;;4979695;28;19977;-66
2023/05/11 06:58:39;;;;;;;;;;;13.60;82.10;;;;;;4970120;28;20396;-68
2023/05/11 07:01:06;;;;;;;;;;;13.60;82.10;;;;;;4982849;28;19934;-64
2023/05/11 07:03:33;;;;;;;;;;;13.60;82.40;;;;;;4980447;28;19940;-66
2023/05/11 07:06:00;;;;;;;;;;;13.60;82.30;;;;;;4979519;28;19945;-66
2023/05/11 07:08:27;;;;;;;;;;;13.60;82.10;;;;;;4978618;28;19926;-64
2023/05/11 07:10:53;;;;;;;;;;;13.60;82.10;;;;;;4980734;28;19934;-67
2023/05/11 07:13:20;;;;;;;;;;;13.60;82.20;;;;;;4979952;28;19992;-67
2023/05/11 07:15:49;;;;;;;;;;;13.60;82.50;;;;;;4982875;28;19926;-61
2023/05/11 07:18:16;;;;;;;;;;;13.60;82.40;;;;;;4980433;28;20340;-61
2023/05/11 07:20:43;;;;;;;;;;;13.70;82.30;;;;;;4983260;28;20095;-75
2023/05/11 07:23:10;;;;;;;;;;;13.70;82.60;;;;;;4981924;28;19936;-75
2023/05/11 07:25:37;;;;;;;;;;;13.70;82.40;;;;;;4985127;28;19930;-63
2023/05/11 07:28:03;;;;;;;;;;;13.70;82.40;;;;;;4985280;28;19940;-64
2023/05/11 07:30:30;;;;;;;;;;;13.70;82.70;;;;;;4982180;28;19940;-67
2023/05/11 07:32:58;;;;;;;;;;;13.70;82.60;;;;;;4986658;28;19932;-66
2023/05/11 07:35:25;;;;;;;;;;;13.70;82.70;;;;;;4977002;28;20214;-61
2023/05/11 07:37:52;;;;;;;;;;;13.70;82.60;;;;;;4982100;28;20008;-61
2023/05/11 07:40:19;;;;;;;;;;;13.70;82.50;;;;;;4985016;28;19940;-61
2023/05/11 07:42:45;;;;;;;;;;;13.70;82.40;;;;;;4982589;28;19933;-61
2023/05/11 07:45:12;;;;;;;;;;;13.80;82.60;;;;;;4982250;28;19929;-61
2023/05/11 07:47:39;;;;;;;;;;;13.80;82.40;;;;;;4985077;28;19996;-74
2023/05/11 07:50:08;;;;;;;;;;;13.80;82.30;;;;;;4982672;28;19925;-74
2023/05/11 07:52:34;;;;;;;;;;;13.90;82.10;;;;;;4980508;28;19980;-62
2023/05/11 07:55:01;;;;;;;;;;;13.90;82.00;;;;;;4984824;28;19930;-61
2023/05/11 07:57:28;;;;;;;;;;;13.90;82.10;;;;;;4980462;28;19966;-65
2023/05/11 07:59:55;;;;;;;;;;;13.90;81.70;;;;;;4984099;28;20030;-65
2023/05/11 08:02:22;;;;;;;;;;;13.90;82.10;;;;;;4981883;28;19934;-63
2023/05/11 08:04:49;;;;;;;;;;;14.00;81.80;;;;;;4981182;28;19926;-64
2023/05/11 08:07:17;;;;;;;;;;;14.00;82.00;;;;;;4980757;28;20332;-74
2023/05/11 08:09:44;;;;;;;;;;;14.00;81.70;;;;;;4982806;28;19934;-73
2023/05/11 08:12:11;;;;;;;;;;;14.00;81.70;;;;;;4975117;28;20044;-73
2023/05/11 08:14:37;;;;;;;;;;;14.00;81.90;;;;;;4984100;28;19926;-73
2023/05/11 08:17:04;;;;;;;;;;;14.10;81.90;;;;;;4983072;28;19926;-74
2023/05/11 08:19:31;;;;;;;;;;;14.10;81.60;;;;;;4984279;28;20017;-73
2023/05/11 08:21:57;;;;;;;;;;;14.10;82.00;;;;;;4967247;28;20382;-73
2023/05/11 08:24:26;;;;;;;;;;;14.10;81.90;;;;;;4981085;28;20346;-74
2023/05/11 08:26:52;;;;;;;;;;;14.20;82.00;;;;;;4978307;28;19941;-64
2023/05/11 08:29:19;;;;;;;;;;;14.20;81.70;;;;;;4982751;28;19933;-66
2023/05/11 08:31:46;;;;;;;;;;;14.20;82.10;;;;;;4982228;28;20300;-63
2023/05/11 08:34:12;;;;;;;;;;;14.20;81.90;;;;;;4983635;28;19937;-65
2023/05/11 08:36:39;;;;;;;;;;;14.20;81.80;;;;;;4982215;28;19957;-66
2023/05/11 08:39:06;;;;;;;;;;;14.20;82.20;;;;;;4982414;28;19934;-66
2023/05/11 08:41:34;;;;;;;;;;;14.20;82.10;;;;;;4984141;28;19934;-67
2023/05/11 08:44:01;;;;;;;;;;;14.30;82.00;;;;;;4982421;28;20012;-67
2023/05/11 08:46:29;;;;;;;;;;;14.30;82.00;;;;;;4979838;28;19949;-65
2023/05/11 08:48:56;;;;;;;;;;;14.30;81.50;;;;;;4979361;28;19930;-65
2023/05/11 08:51:23;;;;;;;;;;;14.40;81.70;;;;;;4983766;28;19934;-66
2023/05/11 08:53:51;;;;;;;;;;;14.40;81.70;;;;;;4982689;28;19926;-65
2023/05/11 08:56:20;;;;;;;;;;;14.40;81.60;;;;;;4982733;28;19983;-65
2023/05/11 08:58:49;;;;;;;;;;;14.40;81.90;;;;;;4982916;28;19926;-65
2023/05/11 09:01:17;;;;;;;;;;;14.40;81.80;;;;;;4981971;28;20055;-66
2023/05/11 09:03:45;;;;;;;;;;;14.50;81.70;;;;;;4980245;28;20012;-65
2023/05/11 09:06:12;;;;;;;;;;;14.50;81.70;;;;;;4980790;28;19930;-63
2023/05/11 09:08:39;;;;;;;;;;;14.50;81.60;;;;;;4982460;28;19929;-62
2023/05/11 09:11:06;;;;;;;;;;;14.50;81.70;;;;;;4979952;28;20270;-63
2023/05/11 09:13:33;;;;;;;;;;;14.50;82.10;;;;;;4981175;28;20356;-62
2023/05/11 09:16:01;;;;;;;;;;;14.60;82.40;;;;;;4978983;28;19940;-72
2023/05/11 09:18:28;;;;;;;;;;;14.60;82.00;;;;;;4983341;28;20352;-74
2023/05/11 09:20:55;;;;;;;;;;;14.60;82.10;;;;;;4966579;28;20380;-67
2023/05/11 09:23:24;;;;;;;;;;;14.50;82.20;;;;;;4983669;28;19941;-65
2023/05/11 09:25:51;;;;;;;;;;;14.50;82.00;;;;;;4979374;28;19930;-63
2023/05/11 09:28:20;;;;;;;;;;;14.60;82.40;;;;;;4961545;28;19929;-62
2023/05/11 09:30:47;;;;;;;;;;;14.60;82.40;;;;;;4978983;28;19933;-63
2023/05/11 09:33:20;;;;;;;;;;;14.50;82.80;;;;;;4982117;28;19976;-62
2023/05/11 09:35:47;;;;;;;;;;;14.50;82.60;;;;;;4981835;28;19974;-61
2023/05/11 09:38:14;;;;;;;;;;;14.50;82.60;;;;;;4977737;28;19934;-60
2023/05/11 09:40:42;;;;;;;;;;;14.60;82.60;;;;;;4982027;28;19930;-63
2023/05/11 09:43:16;;;;;;;;;;;14.60;82.20;;;;;;4983805;28;19926;-60
2023/05/11 09:45:43;;;;;;;;;;;14.60;82.20;;;;;;4983753;28;19930;-61
2023/05/11 09:48:23;;;;;;;;;;;14.60;82.50;;;;;;4982603;28;20028;-61
2023/05/11 09:50:52;;;;;;;;;;;14.60;82.70;;;;;;4981277;28;19925;-64
2023/05/11 09:53:19;;;;;;;;;;;14.60;82.50;;;;;;4983197;28;20024;-61
2023/05/11 09:55:50;;;;;;;;;;;14.60;82.20;;;;;;4981753;28;19926;-68
2023/05/11 09:58:17;;;;;;;;;;;14.60;82.60;;;;;;4982180;28;19941;-67
2023/05/11 10:00:49;;;;;;;;;;;14.60;82.60;;;;;;4984106;28;20332;-64
2023/05/11 10:03:16;;;;;;;;;;;14.60;82.60;;;;;;4982189;28;19973;-65
2023/05/11 10:05:55;;;;;;;;;;;14.60;82.80;;;;;;4982757;28;19930;-67
2023/05/11 10:08:28;;;;;;;;;;;14.60;82.80;;;;;;4977591;28;19934;-67
2023/05/11 10:10:55;;;;;;;;;;;14.70;82.90;;;;;;4974071;28;20024;-62
2023/05/11 10:13:23;;;;;;;;;;;14.70;82.30;;;;;;4973769;28;19930;-63
2023/05/11 10:15:50;;;;;;;;;;;14.80;83.00;;;;;;4983867;28;20024;-66
2023/05/11 10:18:17;;;;;;;;;;;14.70;82.50;;;;;;4981836;28;20394;-67
2023/05/11 10:20:44;;;;;;;;;;;14.70;83.20;;;;;;4980987;28;20396;-67
2023/05/11 10:23:12;;;;;;;;;;;14.70;83.10;;;;;;4979831;28;20036;-68
2023/05/11 10:25:41;;;;;;;;;;;14.80;83.10;;;;;;4980785;28;19930;-74
2023/05/11 10:28:08;;;;;;;;;;;14.80;83.00;;;;;;4976456;28;20297;-73
2023/05/11 10:30:36;;;;;;;;;;;14.90;82.70;;;;;;4982681;28;19933;-74
2023/05/11 10:33:03;;;;;;;;;;;15.00;83.40;;;;;;4973014;28;19933;-72
2023/05/11 10:35:30;;;;;;;;;;;15.00;83.10;;;;;;4972037;28;19926;-72
2023/05/11 10:37:57;;;;;;;;;;;15.10;83.20;;;;;;4980671;28;20061;-73
2023/05/11 10:40:24;;;;;;;;;;;15.20;83.10;;;;;;4975982;28;19933;-65
2023/05/11 10:43:14;;;;;;;;;;;15.10;83.20;;;;;;4977734;28;19930;-65
2023/05/11 10:45:49;;;;;;;;;;;15.10;83.60;;;;;;4959672;28;19926;-66
2023/05/11 10:48:26;;;;;;;;;;;15.10;83.40;;;;;;4980556;28;19965;-66
2023/05/11 10:51:00;;;;;;;;;;;15.10;83.10;;;;;;4977973;28;19937;-61
2023/05/11 10:53:46;;;;;;;;;;;15.10;83.50;;;;;;4974476;28;19930;-59
2023/05/11 10:56:22;;;;;;;;;;;15.10;83.60;;;;;;4980813;28;20384;-66
2023/05/11 10:58:59;;;;;;;;;;;15.20;83.80;;;;;;4984611;28;19926;-65
2023/05/11 11:01:36;;;;;;;;;;;15.30;83.70;;;;;;4987253;28;20429;-66
2023/05/11 11:04:05;;;;;;;;;;;15.40;83.50;;;;;;4985544;28;19941;-67
2023/05/11 11:06:32;;;;;;;;;;;15.30;83.10;;;;;;4984620;28;19926;-66
2023/05/11 11:08:59;;;;;;;;;;;15.30;83.60;;;;;;4985906;28;20013;-67
2023/05/11 11:11:30;;;;;;;;;;;15.30;83.50;;;;;;4985874;28;19930;-68
2023/05/11 11:13:58;;;;;;;;;;;15.20;83.50;;;;;;4984798;28;20392;-69
2023/05/11 11:16:25;;;;;;;;;;;15.20;83.90;;;;;;4985184;28;20385;-61
2023/05/11 11:19:13;;;;;;;;;;;15.10;84.10;;;;;;4985405;28;20337;-62
2023/05/11 11:21:40;;;;;;;;;;;15.10;84.20;;;;;;4985023;28;19934;-62
2023/05/11 11:24:06;;;;;;;;;;;15.10;84.40;;;;;;4986433;28;19933;-61
2023/05/11 11:26:46;;;;;;;;;;;15.10;84.20;;;;;;4981068;28;20417;-62
2023/05/11 11:29:13;;;;;;;;;;;15.10;84.50;;;;;;4985025;28;20404;-61
2023/05/11 11:31:40;;;;;;;;;;;15.10;84.50;;;;;;4983928;28;20394;-66
2023/05/11 11:34:26;;;;;;;;;;;15.10;84.10;;;;;;4985597;28;19926;-66
2023/05/11 11:37:07;;;;;;;;;;;15.20;83.90;;;;;;4985419;28;19940;-61
2023/05/11 11:39:59;;;;;;;;;;;15.20;84.00;;;;;;4981733;28;19933;-61
2023/05/11 11:42:34;;;;;;;;;;;15.20;84.00;;;;;;4984251;28;19929;-61
2023/05/11 11:45:20;;;;;;;;;;;15.20;84.10;;;;;;4985153;28;19930;-60
2023/05/11 11:48:20;;;;;;;;;;;15.20;84.40;;;;;;4984548;28;20411;-61
2023/05/11 11:50:48;;;;;;;;;;;15.30;83.90;;;;;;4980582;28;19934;-64
2023/05/11 11:53:43;;;;;;;;;;;15.40;83.90;;;;;;4985125;28;19925;-63
2023/05/11 11:56:34;;;;;;;;;;;15.60;83.50;;;;;;4985855;28;19969;-62
2023/05/11 11:59:02;;;;;;;;;;;15.60;83.50;;;;;;4982805;28;19925;-61
2023/05/11 12:01:30;;;;;;;;;;;15.60;83.60;;;;;;4985572;28;19932;-61
2023/05/11 12:04:10;;;;;;;;;;;15.70;83.50;;;;;;4984601;28;19968;-62
2023/05/11 12:06:37;;;;;;;;;;;15.70;83.60;;;;;;4985489;28;20344;-62
2023/05/11 12:09:04;;;;;;;;;;;15.80;83.70;;;;;;4985219;28;20377;-63
2023/05/11 12:11:33;;;;;;;;;;;15.80;83.00;;;;;;4985176;28;19925;-65
2023/05/11 12:14:00;;;;;;;;;;;15.90;83.10;;;;;;4984575;28;19941;-67
2023/05/11 12:16:27;;;;;;;;;;;16.00;82.70;;;;;;4984925;28;19929;-63
2023/05/11 12:18:55;;;;;;;;;;;16.00;82.70;;;;;;4985024;28;20397;-63
2023/05/11 12:21:23;;;;;;;;;;;16.00;82.40;;;;;;4982000;28;19945;-73
2023/05/11 12:23:51;;;;;;;;;;;16.00;82.40;;;;;;4984835;28;19972;-73
2023/05/11 12:26:20;;;;;;;;;;;16.00;82.40;;;;;;4982232;28;20009;-63
2023/05/11 12:28:49;;;;;;;;;;;15.90;82.70;;;;;;4983916;28;19932;-61
2023/05/11 12:31:16;;;;;;;;;;;15.90;82.40;;;;;;4982699;28;19942;-71
2023/05/11 12:33:46;;;;;;;;;;;15.90;82.70;;;;;;4984357;28;19926;-74
2023/05/11 12:36:14;;;;;;;;;;;15.90;83.00;;;;;;4982009;28;19984;-67
2023/05/11 12:38:44;;;;;;;;;;;16.00;82.50;;;;;;4986426;28;20369;-68
2023/05/11 12:41:11;;;;;;;;;;;16.00;82.60;;;;;;4984800;28;19930;-66
2023/05/11 12:43:38;;;;;;;;;;;16.00;82.50;;;;;;4984300;28;20381;-66
2023/05/11 12:46:06;;;;;;;;;;;16.00;82.30;;;;;;4984385;28;19981;-66
2023/05/11 12:48:33;;;;;;;;;;;16.00;82.40;;;;;;4984690;28;19926;-66
2023/05/11 12:50:59;;;;;;;;;;;16.10;82.70;;;;;;4984126;28;19933;-75
2023/05/11 12:53:26;;;;;;;;;;;16.00;82.40;;;;;;4981270;28;19930;-75
2023/05/11 12:55:59;;;;;;;;;;;16.00;82.70;;;;;;4983938;28;19933;-67
2023/05/11 12:58:26;;;;;;;;;;;16.00;82.50;;;;;;4985474;28;19969;-66
2023/05/11 13:00:54;;;;;;;;;;;16.10;82.00;;;;;;4983287;28;19953;-66
2023/05/11 13:03:22;;;;;;;;;;;16.10;82.10;;;;;;4983959;28;19933;-67
2023/05/11 13:05:49;;;;;;;;;;;16.10;82.10;;;;;;4983810;28;19925;-67
2023/05/11 13:08:18;;;;;;;;;;;16.10;82.20;;;;;;4983478;28;19930;-68
2023/05/11 13:10:46;;;;;;;;;;;16.10;82.10;;;;;;4981598;28;20289;-61
2023/05/11 13:13:25;;;;;;;;;;;16.10;82.40;;;;;;4983921;28;19934;-61
2023/05/11 13:15:51;;;;;;;;;;;16.10;82.50;;;;;;4982667;28;19925;-62
2023/05/11 13:18:18;;;;;;;;;;;16.10;82.50;;;;;;4983730;28;19930;-62
2023/05/11 13:20:47;;;;;;;;;;;16.10;82.50;;;;;;4985220;28;19930;-61
2023/05/11 13:23:14;;;;;;;;;;;16.20;82.20;;;;;;4981080;28;20340;-61
2023/05/11 13:25:52;;;;;;;;;;;16.30;81.90;;;;;;4983450;28;20384;-61
2023/05/11 13:28:19;;;;;;;;;;;16.30;82.20;;;;;;4983022;28;19965;-61
2023/05/11 13:30:46;;;;;;;;;;;16.40;82.70;;;;;;4984438;28;20335;-69
2023/05/11 13:33:12;;;;;;;;;;;16.40;82.20;;;;;;4985085;28;19933;-68
2023/05/11 13:35:40;;;;;;;;;;;16.50;81.90;;;;;;4985897;28;19953;-66
2023/05/11 13:38:08;;;;;;;;;;;16.50;81.50;;;;;;4984479;28;20024;-67
2023/05/11 13:40:35;;;;;;;;;;;16.60;81.70;;;;;;4983844;28;20102;-67
2023/05/11 13:43:02;;;;;;;;;;;16.60;82.10;;;;;;4984190;28;20048;-67
2023/05/11 13:45:29;;;;;;;;;;;16.60;82.00;;;;;;4982691;28;20357;-64
2023/05/11 13:47:55;;;;;;;;;;;16.60;81.80;;;;;;4984078;28;19996;-64
2023/05/11 13:50:22;;;;;;;;;;;16.50;81.50;;;;;;4983392;28;20254;-64
2023/05/11 13:52:50;;;;;;;;;;;16.50;81.50;;;;;;4981883;28;19934;-65
2023/05/11 13:55:18;;;;;;;;;;;16.40;81.50;;;;;;4982173;28;20028;-65
2023/05/11 13:57:45;;;;;;;;;;;16.40;81.60;;;;;;4982261;28;19937;-63
2023/05/11 14:00:12;;;;;;;;;;;16.30;81.70;;;;;;4982540;28;19929;-64
2023/05/11 14:02:39;;;;;;;;;;;16.30;81.70;;;;;;4982066;28;20365;-74
2023/05/11 14:05:06;;;;;;;;;;;16.30;81.70;;;;;;4983780;28;19941;-74
2023/05/11 14:07:32;;;;;;;;;;;16.30;81.80;;;;;;4982888;28;19969;-67
2023/05/11 14:09:59;;;;;;;;;;;16.20;81.70;;;;;;4983549;28;19927;-65
2023/05/11 14:12:27;;;;;;;;;;;16.30;81.80;;;;;;4982724;28;20507;-73
2023/05/11 14:14:54;;;;;;;;;;;16.20;82.00;;;;;;4983438;28;20439;-74
2023/05/11 14:17:20;;;;;;;;;;;16.20;82.10;;;;;;4982776;28;19926;-68
2023/05/11 14:19:47;;;;;;;;;;;16.20;82.00;;;;;;4967208;28;20552;-68
2023/05/11 14:22:14;;;;;;;;;;;16.20;82.00;;;;;;4983296;28;19937;-70
2023/05/11 14:24:41;;;;;;;;;;;16.20;81.90;;;;;;4984202;28;20390;-68